createdAt,value
2016-02-26T14:06:37.819Z,0
2016-02-26T14:10:29.455Z,0
2016-02-26T14:11:28.598Z,0
2016-02-26T14:12:38.960Z,0
2016-02-26T14:13:38.619Z,0
2016-02-26T14:14:29.403Z,0
2016-02-26T14:15:30.327Z,0
2016-02-26T14:16:49.079Z,0
2016-02-26T14:17:50.238Z,0
2016-02-26T14:18:50.116Z,0
2016-02-26T14:19:48.993Z,0
2016-02-26T14:20:49.918Z,0
2016-02-26T14:24:21.821Z,0
2016-02-26T14:25:23.182Z,0
2016-02-26T14:26:21.920Z,0
2016-02-26T14:27:21.844Z,0
2016-02-26T14:28:21.456Z,0
2016-02-26T14:29:22.958Z,0
2016-02-26T14:30:23.023Z,0
2016-02-26T14:33:27.266Z,0
2016-02-26T14:34:27.988Z,0
2016-02-26T14:35:27.756Z,0
2016-02-26T14:36:26.758Z,0
2016-02-26T14:37:27.808Z,0
2016-02-26T14:38:28.280Z,0
2016-02-26T14:39:26.719Z,0
2016-02-26T14:40:35.738Z,0
2016-02-26T14:41:27.444Z,0
2016-02-26T14:42:27.775Z,0
2016-02-26T14:43:26.324Z,0
2016-02-26T14:44:27.749Z,0
2016-02-26T14:45:26.799Z,0
2016-02-26T14:46:28.691Z,0
2016-02-26T14:47:27.382Z,0
2016-02-26T14:48:28.166Z,0
2016-02-26T15:22:51.507Z,170
2016-02-26T15:23:58.948Z,165
2016-02-26T15:24:57.904Z,160
2016-02-26T15:25:49.250Z,160
2016-02-26T15:27:03.081Z,150
2016-02-26T15:27:49.990Z,145
2016-02-26T15:28:50.820Z,140
2016-02-26T15:29:50.057Z,135
2016-02-26T15:30:49.529Z,125
2016-02-26T15:32:03.891Z,125
2016-02-26T15:33:04.894Z,120
2016-02-26T15:33:51.100Z,110
2016-02-26T15:35:51.184Z,100
2016-02-26T15:36:35.983Z,100
2016-02-26T15:39:07.363Z,95
2016-02-26T15:40:52.712Z,90
2016-02-26T15:41:31.011Z,85
2016-02-26T15:42:31.061Z,85
2016-02-26T15:43:31.064Z,80
2016-02-26T15:44:31.302Z,80
2016-02-26T15:45:58.694Z,75
2016-02-26T15:46:59.807Z,70
2016-02-26T15:48:00.027Z,70
2016-02-26T15:48:46.905Z,70
2016-02-26T15:49:41.158Z,65
2016-02-26T15:50:56.082Z,65
2016-02-26T15:51:31.195Z,65
2016-02-26T15:52:34.838Z,65
2016-02-26T15:54:26.874Z,65
2016-02-26T15:54:42.156Z,65
2016-02-26T15:55:53.127Z,60
2016-02-26T15:56:40.974Z,60
2016-02-26T15:57:43.555Z,60
2016-02-26T15:58:42.667Z,60
2016-02-26T15:59:42.373Z,60
2016-02-26T16:01:13.610Z,55
2016-02-26T16:01:41.784Z,55
2016-02-26T16:02:52.131Z,55
2016-02-26T16:03:44.743Z,55
2016-02-26T16:05:02.465Z,50
2016-02-26T16:05:44.186Z,50
2016-02-26T16:06:41.626Z,50
2016-02-26T16:07:42.332Z,45
2016-02-26T16:08:44.709Z,45
2016-02-26T16:10:11.603Z,45
2016-02-26T16:10:45.777Z,45
2016-02-26T16:11:45.045Z,40
2016-02-26T16:12:42.298Z,40
2016-02-26T16:13:44.738Z,35
2016-02-26T16:14:50.803Z,35
2016-02-26T16:15:44.150Z,35
2016-02-26T16:16:52.965Z,30
2016-02-26T16:17:43.265Z,30
2016-02-26T16:19:06.096Z,30
2016-02-26T16:19:51.802Z,25
2016-02-26T16:20:43.836Z,25
2016-02-26T16:21:41.666Z,25
2016-02-26T16:22:56.216Z,20
2016-02-26T16:23:42.452Z,20
2016-02-26T16:24:41.955Z,20
2016-02-26T16:26:41.742Z,15
2016-02-26T16:27:55.010Z,15
2016-02-26T16:28:42.201Z,15
2016-02-26T16:29:46.251Z,15
2016-02-26T16:30:41.582Z,10
2016-02-26T16:31:41.631Z,10
2016-02-26T16:32:42.259Z,10
2016-02-26T16:33:43.292Z,10
2016-02-26T16:34:51.436Z,10
2016-02-26T16:35:42.876Z,5
2016-02-26T16:37:13.441Z,5
2016-02-26T16:37:42.740Z,5
2016-02-26T16:38:42.009Z,5
2016-02-26T16:39:41.981Z,5
2016-02-26T16:40:51.467Z,5
2016-02-26T16:41:42.142Z,5
2016-02-26T16:42:42.161Z,5
2016-02-26T16:43:41.725Z,0
